100LL.CA
Aviation Fuel Pricing for Canadians
Please upgrade your browser - Tested with IE9, FireFox, Chrome, Safari

Fuel Airports Other Help
Prices Economy Info List METAR/TAF Kneeboard Help

Reference Airport: KELOWNA, BC
N 49 57 25.9572  W 119 22 40.5128
Provinces to show:

CYLW KELOWNA, BC
WEATHER
METARCYLW 230300Z AUTO 06003KT 9SM OVC086 05/03 A3030 RMK SLP278
TAFTAF CYLW 230040Z 2301/2313 VRB03KT P6SM SCT020 BKN060 FM230700 17005KT P6SM SCT020 BKN040 TEMPO 2307/2313 BKN020 RMK FCST BASED ON AUTO OBS. NXT FCST BY 230700Z
OTHER SITES

FlightAware

FltPlan

Google Maps

SkyVector
FUEL
FBO 100LL
member
100LL
public
JETA MOGAS
Shell Aerocenter (2022-04-16)2.7703.0002.670
  Note: Full Service. Ramp Fees. Discounts may be available for some visitors depending on who is working. Call to confirm before arrival.
Canada Flight Supplement - CYLW
(opens in new tab/window)


Please Send Updates!

Desktop Version ]  [ Mobile Version ]  [ Disclaimer ]